sensor_id;sensor_type;location;lat;lon;timestamp;temperature;humidity
5334;DHT22;2689;50.954;7.116;2023-11-19T00:00:38;10.60;99.90
5334;DHT22;2689;50.954;7.116;2023-11-19T00:03:05;10.60;99.90
5334;DHT22;2689;50.954;7.116;2023-11-19T00:05:32;10.60;99.90
5334;DHT22;2689;50.954;7.116;2023-11-19T00:07:58;10.60;99.90
5334;DHT22;2689;50.954;7.116;2023-11-19T00:10:25;10.60;99.90
5334;DHT22;2689;50.954;7.116;2023-11-19T00:12:52;10.60;99.90
5334;DHT22;2689;50.954;7.116;2023-11-19T00:15:19;10.70;99.90
5334;DHT22;2689;50.954;7.116;2023-11-19T00:17:48;10.70;99.90
5334;DHT22;2689;50.954;7.116;2023-11-19T00:20:16;10.70;99.90
5334;DHT22;2689;50.954;7.116;2023-11-19T00:22:43;10.70;99.90
5334;DHT22;2689;50.954;7.116;2023-11-19T00:25:11;10.70;99.90
5334;DHT22;2689;50.954;7.116;2023-11-19T00:27:38;10.80;99.90
5334;DHT22;2689;50.954;7.116;2023-11-19T00:30:08;10.80;99.90
5334;DHT22;2689;50.954;7.116;2023-11-19T00:32:35;10.80;99.90
5334;DHT22;2689;50.954;7.116;2023-11-19T00:35:05;10.80;99.90
5334;DHT22;2689;50.954;7.116;2023-11-19T00:37:32;10.90;99.90
5334;DHT22;2689;50.954;7.116;2023-11-19T00:39:59;10.90;99.90
5334;DHT22;2689;50.954;7.116;2023-11-19T00:42:26;10.90;99.90
5334;DHT22;2689;50.954;7.116;2023-11-19T00:44:53;10.90;99.90
5334;DHT22;2689;50.954;7.116;2023-11-19T00:47:21;10.90;99.90
5334;DHT22;2689;50.954;7.116;2023-11-19T00:49:48;10.90;99.90
5334;DHT22;2689;50.954;7.116;2023-11-19T00:52:17;10.90;99.90
5334;DHT22;2689;50.954;7.116;2023-11-19T00:54:44;10.90;99.90
5334;DHT22;2689;50.954;7.116;2023-11-19T00:57:11;10.90;99.90
5334;DHT22;2689;50.954;7.116;2023-11-19T00:59:38;11.00;99.90
5334;DHT22;2689;50.954;7.116;2023-11-19T01:02:04;11.00;99.90
5334;DHT22;2689;50.954;7.116;2023-11-19T01:04:33;11.00;99.90
5334;DHT22;2689;50.954;7.116;2023-11-19T01:07:02;11.00;99.90
5334;DHT22;2689;50.954;7.116;2023-11-19T01:09:32;11.10;99.90
5334;DHT22;2689;50.954;7.116;2023-11-19T01:12:01;11.00;99.90
5334;DHT22;2689;50.954;7.116;2023-11-19T01:14:28;11.00;99.90
5334;DHT22;2689;50.954;7.116;2023-11-19T01:16:58;11.00;99.90
5334;DHT22;2689;50.954;7.116;2023-11-19T01:19:25;11.00;99.90
5334;DHT22;2689;50.954;7.116;2023-11-19T01:21:52;11.00;99.90
5334;DHT22;2689;50.954;7.116;2023-11-19T01:24:19;11.10;99.90
5334;DHT22;2689;50.954;7.116;2023-11-19T01:26:47;11.10;99.90
5334;DHT22;2689;50.954;7.116;2023-11-19T01:29:14;11.10;99.90
5334;DHT22;2689;50.954;7.116;2023-11-19T01:31:43;11.10;99.90
5334;DHT22;2689;50.954;7.116;2023-11-19T01:34:12;11.00;99.90
5334;DHT22;2689;50.954;7.116;2023-11-19T01:36:39;11.00;99.90
5334;DHT22;2689;50.954;7.116;2023-11-19T01:39:06;11.00;99.90
5334;DHT22;2689;50.954;7.116;2023-11-19T01:41:34;11.00;99.90
5334;DHT22;2689;50.954;7.116;2023-11-19T01:44:04;11.10;99.90
5334;DHT22;2689;50.954;7.116;2023-11-19T01:46:32;11.10;99.90
5334;DHT22;2689;50.954;7.116;2023-11-19T01:49:00;11.10;99.90
5334;DHT22;2689;50.954;7.116;2023-11-19T01:51:28;11.10;99.90
5334;DHT22;2689;50.954;7.116;2023-11-19T01:54:04;11.10;99.90
5334;DHT22;2689;50.954;7.116;2023-11-19T01:56:43;11.10;99.90
5334;DHT22;2689;50.954;7.116;2023-11-19T01:59:12;11.10;99.90
5334;DHT22;2689;50.954;7.116;2023-11-19T02:01:40;11.20;99.90
5334;DHT22;2689;50.954;7.116;2023-11-19T02:04:11;11.20;99.90
5334;DHT22;2689;50.954;7.116;2023-11-19T02:06:40;11.20;99.90
5334;DHT22;2689;50.954;7.116;2023-11-19T02:09:21;11.20;99.90
5334;DHT22;2689;50.954;7.116;2023-11-19T02:11:51;11.30;99.90
5334;DHT22;2689;50.954;7.116;2023-11-19T02:14:24;11.30;99.90
5334;DHT22;2689;50.954;7.116;2023-11-19T02:16:53;11.30;99.90
5334;DHT22;2689;50.954;7.116;2023-11-19T02:19:21;11.30;99.90
5334;DHT22;2689;50.954;7.116;2023-11-19T02:21:48;11.40;99.90
5334;DHT22;2689;50.954;7.116;2023-11-19T02:24:21;11.50;99.90
5334;DHT22;2689;50.954;7.116;2023-11-19T02:26:57;11.50;99.90
5334;DHT22;2689;50.954;7.116;2023-11-19T02:29:27;11.50;99.90
5334;DHT22;2689;50.954;7.116;2023-11-19T02:31:54;11.50;99.90
5334;DHT22;2689;50.954;7.116;2023-11-19T02:34:23;11.50;99.90
5334;DHT22;2689;50.954;7.116;2023-11-19T02:36:50;11.60;99.90
5334;DHT22;2689;50.954;7.116;2023-11-19T02:39:19;11.60;99.90
5334;DHT22;2689;50.954;7.116;2023-11-19T02:41:47;11.60;99.90
5334;DHT22;2689;50.954;7.116;2023-11-19T02:44:16;11.60;99.90
5334;DHT22;2689;50.954;7.116;2023-11-19T02:46:44;11.60;99.90
5334;DHT22;2689;50.954;7.116;2023-11-19T02:49:13;11.60;99.90
5334;DHT22;2689;50.954;7.116;2023-11-19T02:51:41;11.70;99.90
5334;DHT22;2689;50.954;7.116;2023-11-19T02:54:08;11.70;99.90
5334;DHT22;2689;50.954;7.116;2023-11-19T02:56:35;11.70;99.90
5334;DHT22;2689;50.954;7.116;2023-11-19T02:59:04;11.80;99.90
5334;DHT22;2689;50.954;7.116;2023-11-19T03:01:40;11.80;99.90
5334;DHT22;2689;50.954;7.116;2023-11-19T03:04:10;11.80;99.90
5334;DHT22;2689;50.954;7.116;2023-11-19T03:06:38;11.80;99.90
5334;DHT22;2689;50.954;7.116;2023-11-19T03:09:04;11.90;99.90
5334;DHT22;2689;50.954;7.116;2023-11-19T03:11:36;11.90;99.90
5334;DHT22;2689;50.954;7.116;2023-11-19T03:14:02;11.90;99.90
5334;DHT22;2689;50.954;7.116;2023-11-19T03:16:30;11.90;99.90
5334;DHT22;2689;50.954;7.116;2023-11-19T03:18:57;11.90;99.90
5334;DHT22;2689;50.954;7.116;2023-11-19T03:21:29;12.00;99.90
5334;DHT22;2689;50.954;7.116;2023-11-19T03:23:58;12.00;99.90
5334;DHT22;2689;50.954;7.116;2023-11-19T03:26:26;12.00;99.90
5334;DHT22;2689;50.954;7.116;2023-11-19T03:28:55;12.00;99.90
5334;DHT22;2689;50.954;7.116;2023-11-19T03:31:24;12.10;99.90
5334;DHT22;2689;50.954;7.116;2023-11-19T03:33:51;12.10;99.90
5334;DHT22;2689;50.954;7.116;2023-11-19T03:36:18;12.10;99.90
5334;DHT22;2689;50.954;7.116;2023-11-19T03:38:46;12.20;99.90
5334;DHT22;2689;50.954;7.116;2023-11-19T03:41:14;12.20;99.90
5334;DHT22;2689;50.954;7.116;2023-11-19T03:43:41;12.20;99.90
5334;DHT22;2689;50.954;7.116;2023-11-19T03:46:17;12.30;99.90
5334;DHT22;2689;50.954;7.116;2023-11-19T03:48:44;12.20;99.90
5334;DHT22;2689;50.954;7.116;2023-11-19T03:51:11;12.20;99.90
5334;DHT22;2689;50.954;7.116;2023-11-19T03:53:41;12.20;99.90
5334;DHT22;2689;50.954;7.116;2023-11-19T03:56:10;12.20;99.90
5334;DHT22;2689;50.954;7.116;2023-11-19T03:58:37;12.20;99.90
5334;DHT22;2689;50.954;7.116;2023-11-19T04:01:22;12.20;99.90
5334;DHT22;2689;50.954;7.116;2023-11-19T04:03:50;12.20;99.90
5334;DHT22;2689;50.954;7.116;2023-11-19T04:06:17;12.30;99.90
5334;DHT22;2689;50.954;7.116;2023-11-19T04:08:44;12.40;99.90
5334;DHT22;2689;50.954;7.116;2023-11-19T04:11:12;12.30;99.90
5334;DHT22;2689;50.954;7.116;2023-11-19T04:13:39;12.40;99.90
5334;DHT22;2689;50.954;7.116;2023-11-19T04:16:06;12.50;99.90
5334;DHT22;2689;50.954;7.116;2023-11-19T04:18:33;12.70;99.90
5334;DHT22;2689;50.954;7.116;2023-11-19T04:21:00;12.70;99.90
5334;DHT22;2689;50.954;7.116;2023-11-19T04:23:27;12.70;99.90
5334;DHT22;2689;50.954;7.116;2023-11-19T04:25:53;12.70;99.90
5334;DHT22;2689;50.954;7.116;2023-11-19T04:28:23;12.70;99.90
5334;DHT22;2689;50.954;7.116;2023-11-19T04:30:52;12.80;99.90
5334;DHT22;2689;50.954;7.116;2023-11-19T04:33:19;12.90;99.90
5334;DHT22;2689;50.954;7.116;2023-11-19T04:35:45;12.80;99.90
5334;DHT22;2689;50.954;7.116;2023-11-19T04:38:12;12.90;99.90
5334;DHT22;2689;50.954;7.116;2023-11-19T04:40:40;12.80;99.90
5334;DHT22;2689;50.954;7.116;2023-11-19T04:43:07;12.90;99.90
5334;DHT22;2689;50.954;7.116;2023-11-19T04:45:35;12.90;99.90
5334;DHT22;2689;50.954;7.116;2023-11-19T04:48:02;12.90;99.90
5334;DHT22;2689;50.954;7.116;2023-11-19T04:50:29;12.90;99.90
5334;DHT22;2689;50.954;7.116;2023-11-19T04:52:56;12.90;99.90
5334;DHT22;2689;50.954;7.116;2023-11-19T04:55:22;13.00;99.90
5334;DHT22;2689;50.954;7.116;2023-11-19T04:57:49;13.10;99.90
5334;DHT22;2689;50.954;7.116;2023-11-19T05:00:16;13.10;99.90
5334;DHT22;2689;50.954;7.116;2023-11-19T05:02:44;13.10;99.90
5334;DHT22;2689;50.954;7.116;2023-11-19T05:05:11;13.10;99.90
5334;DHT22;2689;50.954;7.116;2023-11-19T05:07:37;13.20;99.90
5334;DHT22;2689;50.954;7.116;2023-11-19T05:10:05;13.10;99.90
5334;DHT22;2689;50.954;7.116;2023-11-19T05:12:32;13.10;99.90
5334;DHT22;2689;50.954;7.116;2023-11-19T05:14:59;13.10;99.90
5334;DHT22;2689;50.954;7.116;2023-11-19T05:17:26;12.90;99.90
5334;DHT22;2689;50.954;7.116;2023-11-19T05:19:54;12.90;99.90
5334;DHT22;2689;50.954;7.116;2023-11-19T05:22:21;12.90;99.90
5334;DHT22;2689;50.954;7.116;2023-11-19T05:24:47;12.90;99.90
5334;DHT22;2689;50.954;7.116;2023-11-19T05:27:15;13.00;99.90
5334;DHT22;2689;50.954;7.116;2023-11-19T05:29:41;12.90;99.90
5334;DHT22;2689;50.954;7.116;2023-11-19T05:32:09;12.90;99.90
5334;DHT22;2689;50.954;7.116;2023-11-19T05:34:35;12.80;99.90
5334;DHT22;2689;50.954;7.116;2023-11-19T05:37:04;12.80;99.90
5334;DHT22;2689;50.954;7.116;2023-11-19T05:39:31;12.70;99.90
5334;DHT22;2689;50.954;7.116;2023-11-19T05:41:57;12.70;99.90
5334;DHT22;2689;50.954;7.116;2023-11-19T05:44:24;12.70;99.90
5334;DHT22;2689;50.954;7.116;2023-11-19T05:46:51;12.80;99.90
5334;DHT22;2689;50.954;7.116;2023-11-19T05:49:18;12.80;99.90
5334;DHT22;2689;50.954;7.116;2023-11-19T05:51:44;12.80;99.90
5334;DHT22;2689;50.954;7.116;2023-11-19T05:54:13;12.80;99.90
5334;DHT22;2689;50.954;7.116;2023-11-19T05:56:39;12.80;99.90
5334;DHT22;2689;50.954;7.116;2023-11-19T05:59:07;12.80;99.90
5334;DHT22;2689;50.954;7.116;2023-11-19T06:01:40;12.80;99.90
5334;DHT22;2689;50.954;7.116;2023-11-19T06:04:08;12.70;99.90
5334;DHT22;2689;50.954;7.116;2023-11-19T06:06:35;12.70;99.90
5334;DHT22;2689;50.954;7.116;2023-11-19T06:09:02;12.80;99.90
5334;DHT22;2689;50.954;7.116;2023-11-19T06:11:33;12.70;99.90
5334;DHT22;2689;50.954;7.116;2023-11-19T06:14:01;12.70;99.90
5334;DHT22;2689;50.954;7.116;2023-11-19T06:16:31;12.70;99.90
5334;DHT22;2689;50.954;7.116;2023-11-19T06:18:58;12.70;99.90
5334;DHT22;2689;50.954;7.116;2023-11-19T06:21:24;12.70;99.90
5334;DHT22;2689;50.954;7.116;2023-11-19T06:23:51;12.70;99.90
5334;DHT22;2689;50.954;7.116;2023-11-19T06:26:18;12.70;99.90
5334;DHT22;2689;50.954;7.116;2023-11-19T06:28:49;12.70;99.90
5334;DHT22;2689;50.954;7.116;2023-11-19T06:31:15;12.70;99.90
5334;DHT22;2689;50.954;7.116;2023-11-19T06:33:42;12.70;99.90
5334;DHT22;2689;50.954;7.116;2023-11-19T06:36:09;12.70;99.90
5334;DHT22;2689;50.954;7.116;2023-11-19T06:38:36;12.80;99.90
5334;DHT22;2689;50.954;7.116;2023-11-19T06:41:07;12.80;99.90
5334;DHT22;2689;50.954;7.116;2023-11-19T06:43:33;12.80;99.90
5334;DHT22;2689;50.954;7.116;2023-11-19T06:46:02;12.80;99.90
5334;DHT22;2689;50.954;7.116;2023-11-19T06:48:31;12.90;99.90
5334;DHT22;2689;50.954;7.116;2023-11-19T06:50:57;12.90;99.90
5334;DHT22;2689;50.954;7.116;2023-11-19T06:53:24;12.90;99.90
5334;DHT22;2689;50.954;7.116;2023-11-19T06:55:53;12.80;99.90
5334;DHT22;2689;50.954;7.116;2023-11-19T06:58:20;12.80;99.90
5334;DHT22;2689;50.954;7.116;2023-11-19T07:00:46;12.80;99.90
5334;DHT22;2689;50.954;7.116;2023-11-19T07:03:16;12.80;99.90
5334;DHT22;2689;50.954;7.116;2023-11-19T07:05:43;12.70;99.90
5334;DHT22;2689;50.954;7.116;2023-11-19T07:08:10;12.70;99.90
5334;DHT22;2689;50.954;7.116;2023-11-19T07:10:36;12.70;99.90
5334;DHT22;2689;50.954;7.116;2023-11-19T07:13:04;12.70;99.90
5334;DHT22;2689;50.954;7.116;2023-11-19T07:15:31;12.80;99.90
5334;DHT22;2689;50.954;7.116;2023-11-19T07:17:59;12.80;99.90
5334;DHT22;2689;50.954;7.116;2023-11-19T07:20:27;12.80;99.90
5334;DHT22;2689;50.954;7.116;2023-11-19T07:22:58;12.80;99.90
5334;DHT22;2689;50.954;7.116;2023-11-19T07:25:25;12.70;99.90
5334;DHT22;2689;50.954;7.116;2023-11-19T07:27:52;12.60;99.90
5334;DHT22;2689;50.954;7.116;2023-11-19T07:30:19;12.60;99.90
5334;DHT22;2689;50.954;7.116;2023-11-19T07:32:46;12.60;99.90
5334;DHT22;2689;50.954;7.116;2023-11-19T07:35:13;12.60;99.90
5334;DHT22;2689;50.954;7.116;2023-11-19T07:37:42;12.60;99.90
5334;DHT22;2689;50.954;7.116;2023-11-19T07:40:09;12.60;99.90
5334;DHT22;2689;50.954;7.116;2023-11-19T07:42:37;12.60;99.90
5334;DHT22;2689;50.954;7.116;2023-11-19T07:45:04;12.60;99.90
5334;DHT22;2689;50.954;7.116;2023-11-19T07:47:32;12.60;99.90
5334;DHT22;2689;50.954;7.116;2023-11-19T07:50:00;12.60;99.90
5334;DHT22;2689;50.954;7.116;2023-11-19T07:52:26;12.60;99.90
5334;DHT22;2689;50.954;7.116;2023-11-19T07:54:55;12.70;99.90
5334;DHT22;2689;50.954;7.116;2023-11-19T07:57:21;12.70;99.90
5334;DHT22;2689;50.954;7.116;2023-11-19T07:59:49;12.60;99.90
5334;DHT22;2689;50.954;7.116;2023-11-19T08:02:16;12.50;99.90
5334;DHT22;2689;50.954;7.116;2023-11-19T08:04:44;12.50;99.90
5334;DHT22;2689;50.954;7.116;2023-11-19T08:07:11;12.60;99.90
5334;DHT22;2689;50.954;7.116;2023-11-19T08:09:38;12.60;99.90
5334;DHT22;2689;50.954;7.116;2023-11-19T08:12:06;12.60;99.90
5334;DHT22;2689;50.954;7.116;2023-11-19T08:14:34;12.60;99.90
5334;DHT22;2689;50.954;7.116;2023-11-19T08:17:02;12.50;99.90
5334;DHT22;2689;50.954;7.116;2023-11-19T08:19:30;12.40;99.90
5334;DHT22;2689;50.954;7.116;2023-11-19T08:21:57;12.30;99.90
5334;DHT22;2689;50.954;7.116;2023-11-19T08:24:23;12.30;99.90
5334;DHT22;2689;50.954;7.116;2023-11-19T08:26:50;12.30;99.90
5334;DHT22;2689;50.954;7.116;2023-11-19T08:29:19;12.30;99.90
5334;DHT22;2689;50.954;7.116;2023-11-19T08:31:47;12.40;99.90
5334;DHT22;2689;50.954;7.116;2023-11-19T08:34:13;12.60;99.90
5334;DHT22;2689;50.954;7.116;2023-11-19T08:36:41;12.80;99.90
5334;DHT22;2689;50.954;7.116;2023-11-19T08:39:08;12.90;99.90
5334;DHT22;2689;50.954;7.116;2023-11-19T08:41:35;13.50;99.90
5334;DHT22;2689;50.954;7.116;2023-11-19T08:44:04;14.00;99.90
5334;DHT22;2689;50.954;7.116;2023-11-19T08:46:32;14.30;99.90
5334;DHT22;2689;50.954;7.116;2023-11-19T08:48:59;14.20;99.90
5334;DHT22;2689;50.954;7.116;2023-11-19T08:51:26;14.30;99.90
5334;DHT22;2689;50.954;7.116;2023-11-19T08:53:53;14.60;99.90
5334;DHT22;2689;50.954;7.116;2023-11-19T08:56:21;15.00;99.90
5334;DHT22;2689;50.954;7.116;2023-11-19T08:58:48;15.30;99.90
5334;DHT22;2689;50.954;7.116;2023-11-19T09:01:14;15.50;99.90
5334;DHT22;2689;50.954;7.116;2023-11-19T09:03:42;15.50;99.90
5334;DHT22;2689;50.954;7.116;2023-11-19T09:06:09;15.40;99.90
5334;DHT22;2689;50.954;7.116;2023-11-19T09:08:36;15.70;99.90
5334;DHT22;2689;50.954;7.116;2023-11-19T09:11:07;16.00;99.40
5334;DHT22;2689;50.954;7.116;2023-11-19T09:13:34;16.40;98.90
5334;DHT22;2689;50.954;7.116;2023-11-19T09:16:01;16.80;97.10
5334;DHT22;2689;50.954;7.116;2023-11-19T09:18:29;16.90;96.80
5334;DHT22;2689;50.954;7.116;2023-11-19T09:20:57;17.10;95.60
5334;DHT22;2689;50.954;7.116;2023-11-19T09:23:24;16.80;95.70
5334;DHT22;2689;50.954;7.116;2023-11-19T09:25:53;16.50;96.10
5334;DHT22;2689;50.954;7.116;2023-11-19T09:28:20;16.30;96.30
5334;DHT22;2689;50.954;7.116;2023-11-19T09:30:47;15.90;96.70
5334;DHT22;2689;50.954;7.116;2023-11-19T09:33:16;15.80;97.50
5334;DHT22;2689;50.954;7.116;2023-11-19T09:35:43;15.50;98.30
5334;DHT22;2689;50.954;7.116;2023-11-19T09:38:11;15.20;98.40
5334;DHT22;2689;50.954;7.116;2023-11-19T09:40:38;15.00;98.70
5334;DHT22;2689;50.954;7.116;2023-11-19T09:43:05;14.80;99.20
5334;DHT22;2689;50.954;7.116;2023-11-19T09:45:32;14.70;99.40
5334;DHT22;2689;50.954;7.116;2023-11-19T09:48:06;14.70;99.90
5334;DHT22;2689;50.954;7.116;2023-11-19T09:50:33;14.70;99.90
5334;DHT22;2689;50.954;7.116;2023-11-19T09:53:00;14.80;99.90
5334;DHT22;2689;50.954;7.116;2023-11-19T09:55:28;14.90;99.60
5334;DHT22;2689;50.954;7.116;2023-11-19T09:57:55;14.80;99.90
5334;DHT22;2689;50.954;7.116;2023-11-19T10:00:25;14.80;99.90
5334;DHT22;2689;50.954;7.116;2023-11-19T10:02:59;14.70;99.90
5334;DHT22;2689;50.954;7.116;2023-11-19T10:05:26;14.50;99.90
5334;DHT22;2689;50.954;7.116;2023-11-19T10:07:53;14.50;99.90
5334;DHT22;2689;50.954;7.116;2023-11-19T10:10:21;14.50;99.90
5334;DHT22;2689;50.954;7.116;2023-11-19T10:12:52;14.50;99.90
5334;DHT22;2689;50.954;7.116;2023-11-19T10:15:22;14.50;99.90
5334;DHT22;2689;50.954;7.116;2023-11-19T10:17:50;14.60;99.90
5334;DHT22;2689;50.954;7.116;2023-11-19T10:20:17;14.80;99.90
5334;DHT22;2689;50.954;7.116;2023-11-19T10:22:44;15.10;99.90
5334;DHT22;2689;50.954;7.116;2023-11-19T10:25:22;15.40;99.30
5334;DHT22;2689;50.954;7.116;2023-11-19T10:27:49;15.60;98.30
5334;DHT22;2689;50.954;7.116;2023-11-19T10:30:20;15.70;98.20
5334;DHT22;2689;50.954;7.116;2023-11-19T10:33:03;15.70;97.20
5334;DHT22;2689;50.954;7.116;2023-11-19T10:35:30;15.70;97.40
5334;DHT22;2689;50.954;7.116;2023-11-19T10:37:59;15.70;96.90
5334;DHT22;2689;50.954;7.116;2023-11-19T10:40:46;15.60;97.40
5334;DHT22;2689;50.954;7.116;2023-11-19T10:43:13;15.40;96.80
5334;DHT22;2689;50.954;7.116;2023-11-19T10:45:41;15.20;98.60
5334;DHT22;2689;50.954;7.116;2023-11-19T10:48:08;15.20;97.60
5334;DHT22;2689;50.954;7.116;2023-11-19T10:50:36;15.30;98.20
5334;DHT22;2689;50.954;7.116;2023-11-19T10:53:04;15.50;97.60
5334;DHT22;2689;50.954;7.116;2023-11-19T10:55:32;15.60;97.20
5334;DHT22;2689;50.954;7.116;2023-11-19T10:58:02;15.60;97.20
5334;DHT22;2689;50.954;7.116;2023-11-19T11:00:30;15.80;96.80
5334;DHT22;2689;50.954;7.116;2023-11-19T11:03:02;15.90;96.30
5334;DHT22;2689;50.954;7.116;2023-11-19T11:05:32;16.00;96.10
5334;DHT22;2689;50.954;7.116;2023-11-19T11:08:00;15.90;95.60
5334;DHT22;2689;50.954;7.116;2023-11-19T11:10:28;15.60;95.80
5334;DHT22;2689;50.954;7.116;2023-11-19T11:13:03;15.40;96.00
5334;DHT22;2689;50.954;7.116;2023-11-19T11:15:30;15.30;96.30
5334;DHT22;2689;50.954;7.116;2023-11-19T11:18:02;15.00;96.40
5334;DHT22;2689;50.954;7.116;2023-11-19T11:20:30;14.90;96.90
5334;DHT22;2689;50.954;7.116;2023-11-19T11:23:11;14.90;97.50
5334;DHT22;2689;50.954;7.116;2023-11-19T11:25:49;14.80;97.90
5334;DHT22;2689;50.954;7.116;2023-11-19T11:28:28;14.70;99.90
5334;DHT22;2689;50.954;7.116;2023-11-19T11:31:08;14.40;99.90
5334;DHT22;2689;50.954;7.116;2023-11-19T11:33:55;14.10;99.90
5334;DHT22;2689;50.954;7.116;2023-11-19T11:36:25;13.90;99.90
5334;DHT22;2689;50.954;7.116;2023-11-19T11:38:53;13.90;99.90
5334;DHT22;2689;50.954;7.116;2023-11-19T11:41:25;13.80;99.90
5334;DHT22;2689;50.954;7.116;2023-11-19T11:43:52;13.90;99.90
5334;DHT22;2689;50.954;7.116;2023-11-19T11:46:55;14.00;99.90
5334;DHT22;2689;50.954;7.116;2023-11-19T11:49:27;14.00;99.90
5334;DHT22;2689;50.954;7.116;2023-11-19T11:52:02;14.00;99.90
5334;DHT22;2689;50.954;7.116;2023-11-19T11:54:30;14.00;99.90
5334;DHT22;2689;50.954;7.116;2023-11-19T11:57:07;14.00;99.90
5334;DHT22;2689;50.954;7.116;2023-11-19T11:59:45;14.00;99.90
5334;DHT22;2689;50.954;7.116;2023-11-19T12:02:14;14.00;99.90
5334;DHT22;2689;50.954;7.116;2023-11-19T12:04:46;13.90;99.90
5334;DHT22;2689;50.954;7.116;2023-11-19T12:07:14;14.00;99.90
5334;DHT22;2689;50.954;7.116;2023-11-19T12:09:42;14.10;99.90
5334;DHT22;2689;50.954;7.116;2023-11-19T12:12:18;14.30;99.90
5334;DHT22;2689;50.954;7.116;2023-11-19T12:15:10;14.50;99.90
5334;DHT22;2689;50.954;7.116;2023-11-19T12:17:40;14.70;99.90
5334;DHT22;2689;50.954;7.116;2023-11-19T12:20:08;14.80;99.80
5334;DHT22;2689;50.954;7.116;2023-11-19T12:22:37;14.90;99.50
5334;DHT22;2689;50.954;7.116;2023-11-19T12:25:05;14.90;99.00
5334;DHT22;2689;50.954;7.116;2023-11-19T12:27:32;14.90;99.10
5334;DHT22;2689;50.954;7.116;2023-11-19T12:29:59;14.90;99.50
5334;DHT22;2689;50.954;7.116;2023-11-19T12:32:26;14.90;99.30
5334;DHT22;2689;50.954;7.116;2023-11-19T12:34:53;14.80;99.50
5334;DHT22;2689;50.954;7.116;2023-11-19T12:37:22;14.90;99.20
5334;DHT22;2689;50.954;7.116;2023-11-19T12:39:49;14.90;99.60
5334;DHT22;2689;50.954;7.116;2023-11-19T12:42:16;14.80;99.40
5334;DHT22;2689;50.954;7.116;2023-11-19T12:44:54;14.80;99.50
5334;DHT22;2689;50.954;7.116;2023-11-19T12:47:21;14.80;99.90
5334;DHT22;2689;50.954;7.116;2023-11-19T12:49:55;14.80;99.80
5334;DHT22;2689;50.954;7.116;2023-11-19T12:52:25;14.70;99.30
5334;DHT22;2689;50.954;7.116;2023-11-19T12:54:52;14.70;99.90
5334;DHT22;2689;50.954;7.116;2023-11-19T12:57:19;14.60;99.90
5334;DHT22;2689;50.954;7.116;2023-11-19T12:59:54;14.70;99.90
5334;DHT22;2689;50.954;7.116;2023-11-19T13:02:22;14.60;99.90
5334;DHT22;2689;50.954;7.116;2023-11-19T13:04:49;14.60;99.90
5334;DHT22;2689;50.954;7.116;2023-11-19T13:07:20;14.50;99.90
5334;DHT22;2689;50.954;7.116;2023-11-19T13:09:49;14.40;99.80
5334;DHT22;2689;50.954;7.116;2023-11-19T13:12:19;14.40;99.90
5334;DHT22;2689;50.954;7.116;2023-11-19T13:14:46;14.40;99.90
5334;DHT22;2689;50.954;7.116;2023-11-19T13:17:14;14.40;99.90
5334;DHT22;2689;50.954;7.116;2023-11-19T13:19:41;14.40;99.90
5334;DHT22;2689;50.954;7.116;2023-11-19T13:22:08;14.40;99.90
5334;DHT22;2689;50.954;7.116;2023-11-19T13:24:35;14.40;99.90
5334;DHT22;2689;50.954;7.116;2023-11-19T13:27:03;14.40;99.90
5334;DHT22;2689;50.954;7.116;2023-11-19T13:29:30;14.30;99.90
5334;DHT22;2689;50.954;7.116;2023-11-19T13:31:57;14.30;99.90
5334;DHT22;2689;50.954;7.116;2023-11-19T13:34:23;14.30;99.90
5334;DHT22;2689;50.954;7.116;2023-11-19T13:36:50;14.40;99.90
5334;DHT22;2689;50.954;7.116;2023-11-19T13:39:20;14.40;99.90
5334;DHT22;2689;50.954;7.116;2023-11-19T13:41:49;14.30;99.90
5334;DHT22;2689;50.954;7.116;2023-11-19T13:44:17;14.40;99.90
5334;DHT22;2689;50.954;7.116;2023-11-19T13:46:45;14.40;99.90
5334;DHT22;2689;50.954;7.116;2023-11-19T13:49:12;14.30;99.90
5334;DHT22;2689;50.954;7.116;2023-11-19T13:51:39;14.30;99.90
5334;DHT22;2689;50.954;7.116;2023-11-19T13:54:06;14.40;99.90
5334;DHT22;2689;50.954;7.116;2023-11-19T13:56:33;14.40;99.90
5334;DHT22;2689;50.954;7.116;2023-11-19T13:58:59;14.60;99.90
5334;DHT22;2689;50.954;7.116;2023-11-19T14:01:28;14.60;99.90
5334;DHT22;2689;50.954;7.116;2023-11-19T14:03:56;14.60;99.90
5334;DHT22;2689;50.954;7.116;2023-11-19T14:06:23;14.50;99.90
5334;DHT22;2689;50.954;7.116;2023-11-19T14:08:50;14.50;99.70
5334;DHT22;2689;50.954;7.116;2023-11-19T14:11:16;14.50;99.50
5334;DHT22;2689;50.954;7.116;2023-11-19T14:13:43;14.50;99.50
5334;DHT22;2689;50.954;7.116;2023-11-19T14:16:12;14.50;99.40
5334;DHT22;2689;50.954;7.116;2023-11-19T14:18:40;14.50;98.90
5334;DHT22;2689;50.954;7.116;2023-11-19T14:21:07;14.50;99.20
5334;DHT22;2689;50.954;7.116;2023-11-19T14:23:33;14.50;98.90
5334;DHT22;2689;50.954;7.116;2023-11-19T14:26:00;14.40;99.10
5334;DHT22;2689;50.954;7.116;2023-11-19T14:28:28;14.40;98.90
5334;DHT22;2689;50.954;7.116;2023-11-19T14:30:56;14.40;98.90
5334;DHT22;2689;50.954;7.116;2023-11-19T14:33:23;14.40;99.20
5334;DHT22;2689;50.954;7.116;2023-11-19T14:35:51;14.40;98.80
5334;DHT22;2689;50.954;7.116;2023-11-19T14:38:18;14.40;99.00
5334;DHT22;2689;50.954;7.116;2023-11-19T14:40:45;14.30;98.60
5334;DHT22;2689;50.954;7.116;2023-11-19T14:43:13;14.30;98.80
5334;DHT22;2689;50.954;7.116;2023-11-19T14:45:41;14.30;98.90
5334;DHT22;2689;50.954;7.116;2023-11-19T14:48:07;14.30;99.00
5334;DHT22;2689;50.954;7.116;2023-11-19T14:50:35;14.20;98.80
5334;DHT22;2689;50.954;7.116;2023-11-19T14:53:03;14.20;99.00
5334;DHT22;2689;50.954;7.116;2023-11-19T14:55:30;14.20;99.10
5334;DHT22;2689;50.954;7.116;2023-11-19T14:57:59;14.20;99.20
5334;DHT22;2689;50.954;7.116;2023-11-19T15:00:26;14.30;99.40
5334;DHT22;2689;50.954;7.116;2023-11-19T15:02:52;14.20;99.90
5334;DHT22;2689;50.954;7.116;2023-11-19T15:05:19;14.20;99.90
5334;DHT22;2689;50.954;7.116;2023-11-19T15:07:46;14.20;99.90
5334;DHT22;2689;50.954;7.116;2023-11-19T15:10:15;14.20;99.60
5334;DHT22;2689;50.954;7.116;2023-11-19T15:12:42;14.20;99.90
5334;DHT22;2689;50.954;7.116;2023-11-19T15:15:09;14.10;99.60
5334;DHT22;2689;50.954;7.116;2023-11-19T15:17:39;14.10;99.50
5334;DHT22;2689;50.954;7.116;2023-11-19T15:20:07;14.00;99.70
5334;DHT22;2689;50.954;7.116;2023-11-19T15:22:34;14.00;99.60
5334;DHT22;2689;50.954;7.116;2023-11-19T15:25:00;13.90;99.80
5334;DHT22;2689;50.954;7.116;2023-11-19T15:27:29;13.90;99.80
5334;DHT22;2689;50.954;7.116;2023-11-19T15:29:56;13.90;99.90
5334;DHT22;2689;50.954;7.116;2023-11-19T15:32:24;13.90;99.90
5334;DHT22;2689;50.954;7.116;2023-11-19T15:34:50;13.90;99.90
5334;DHT22;2689;50.954;7.116;2023-11-19T15:37:18;13.90;99.90
5334;DHT22;2689;50.954;7.116;2023-11-19T15:39:45;13.70;99.90
5334;DHT22;2689;50.954;7.116;2023-11-19T15:42:13;13.70;99.90
5334;DHT22;2689;50.954;7.116;2023-11-19T15:44:41;13.60;99.90
5334;DHT22;2689;50.954;7.116;2023-11-19T15:47:09;13.50;99.90
5334;DHT22;2689;50.954;7.116;2023-11-19T15:49:35;13.30;99.90
5334;DHT22;2689;50.954;7.116;2023-11-19T15:52:02;13.10;99.90
5334;DHT22;2689;50.954;7.116;2023-11-19T15:54:30;13.00;99.90
5334;DHT22;2689;50.954;7.116;2023-11-19T15:56:57;12.90;99.90
5334;DHT22;2689;50.954;7.116;2023-11-19T15:59:24;12.80;99.90
5334;DHT22;2689;50.954;7.116;2023-11-19T16:01:52;12.80;99.90
5334;DHT22;2689;50.954;7.116;2023-11-19T16:04:19;12.70;99.90
5334;DHT22;2689;50.954;7.116;2023-11-19T16:06:46;12.70;99.90
5334;DHT22;2689;50.954;7.116;2023-11-19T16:09:13;12.70;99.90